sensor_id;sensor_type;location;lat;lon;timestamp;P1;durP1;ratioP1;P2;durP2;ratioP2
10643;SDS011;5370;50.132;8.626;2022-11-30T00:00:24;30.53;;;19.37;;
10643;SDS011;5370;50.132;8.626;2022-11-30T00:02:50;25.57;;;17.30;;
10643;SDS011;5370;50.132;8.626;2022-11-30T00:05:17;27.10;;;17.53;;
10643;SDS011;5370;50.132;8.626;2022-11-30T00:07:44;31.50;;;18.43;;
10643;SDS011;5370;50.132;8.626;2022-11-30T00:10:10;31.80;;;19.07;;
10643;SDS011;5370;50.132;8.626;2022-11-30T00:12:36;32.20;;;18.87;;
10643;SDS011;5370;50.132;8.626;2022-11-30T00:15:02;28.47;;;18.57;;
10643;SDS011;5370;50.132;8.626;2022-11-30T00:17:28;34.87;;;19.97;;
10643;SDS011;5370;50.132;8.626;2022-11-30T00:19:53;31.43;;;18.20;;
10643;SDS011;5370;50.132;8.626;2022-11-30T00:22:19;30.10;;;19.10;;
10643;SDS011;5370;50.132;8.626;2022-11-30T00:24:44;26.37;;;17.60;;
10643;SDS011;5370;50.132;8.626;2022-11-30T00:27:10;32.40;;;18.70;;
10643;SDS011;5370;50.132;8.626;2022-11-30T00:29:35;34.33;;;18.33;;
10643;SDS011;5370;50.132;8.626;2022-11-30T00:32:01;34.17;;;18.67;;
10643;SDS011;5370;50.132;8.626;2022-11-30T00:34:26;31.43;;;17.93;;
10643;SDS011;5370;50.132;8.626;2022-11-30T00:36:52;34.70;;;17.17;;
10643;SDS011;5370;50.132;8.626;2022-11-30T00:39:17;38.43;;;18.23;;
10643;SDS011;5370;50.132;8.626;2022-11-30T00:41:43;30.70;;;17.57;;
10643;SDS011;5370;50.132;8.626;2022-11-30T00:44:08;30.17;;;17.43;;
10643;SDS011;5370;50.132;8.626;2022-11-30T00:46:34;28.23;;;16.00;;
10643;SDS011;5370;50.132;8.626;2022-11-30T00:48:59;25.33;;;14.90;;
10643;SDS011;5370;50.132;8.626;2022-11-30T00:51:25;29.03;;;16.97;;
10643;SDS011;5370;50.132;8.626;2022-11-30T00:53:50;26.90;;;16.93;;
10643;SDS011;5370;50.132;8.626;2022-11-30T00:56:16;25.33;;;16.90;;
10643;SDS011;5370;50.132;8.626;2022-11-30T00:58:41;30.80;;;17.10;;
10643;SDS011;5370;50.132;8.626;2022-11-30T01:01:07;33.63;;;16.67;;
10643;SDS011;5370;50.132;8.626;2022-11-30T01:03:33;29.03;;;15.60;;
10643;SDS011;5370;50.132;8.626;2022-11-30T01:06:02;34.10;;;17.87;;
10643;SDS011;5370;50.132;8.626;2022-11-30T01:08:32;29.73;;;15.97;;
10643;SDS011;5370;50.132;8.626;2022-11-30T01:11:03;32.90;;;16.40;;
10643;SDS011;5370;50.132;8.626;2022-11-30T01:13:35;28.70;;;17.37;;
10643;SDS011;5370;50.132;8.626;2022-11-30T01:16:01;27.77;;;15.80;;
10643;SDS011;5370;50.132;8.626;2022-11-30T01:18:34;30.77;;;16.80;;
10643;SDS011;5370;50.132;8.626;2022-11-30T01:21:04;28.10;;;17.03;;
10643;SDS011;5370;50.132;8.626;2022-11-30T01:23:30;30.03;;;16.47;;
10643;SDS011;5370;50.132;8.626;2022-11-30T01:25:56;33.77;;;16.33;;
10643;SDS011;5370;50.132;8.626;2022-11-30T01:28:22;32.30;;;16.83;;
10643;SDS011;5370;50.132;8.626;2022-11-30T01:31:01;33.23;;;15.93;;
10643;SDS011;5370;50.132;8.626;2022-11-30T01:33:31;31.83;;;16.53;;
10643;SDS011;5370;50.132;8.626;2022-11-30T01:36:08;35.70;;;17.10;;
10643;SDS011;5370;50.132;8.626;2022-11-30T01:38:37;29.07;;;16.07;;
10643;SDS011;5370;50.132;8.626;2022-11-30T01:41:04;31.87;;;15.70;;
10643;SDS011;5370;50.132;8.626;2022-11-30T01:43:44;34.33;;;16.73;;
10643;SDS011;5370;50.132;8.626;2022-11-30T01:51:43;33.43;;;15.67;;
10643;SDS011;5370;50.132;8.626;2022-11-30T01:54:16;28.60;;;16.23;;
10643;SDS011;5370;50.132;8.626;2022-11-30T01:56:50;35.30;;;16.70;;
10643;SDS011;5370;50.132;8.626;2022-11-30T01:59:20;28.63;;;16.30;;
10643;SDS011;5370;50.132;8.626;2022-11-30T02:01:47;29.93;;;15.07;;
10643;SDS011;5370;50.132;8.626;2022-11-30T02:04:18;28.03;;;15.27;;
10643;SDS011;5370;50.132;8.626;2022-11-30T02:06:47;29.20;;;16.17;;
10643;SDS011;5370;50.132;8.626;2022-11-30T02:09:13;29.57;;;16.40;;
10643;SDS011;5370;50.132;8.626;2022-11-30T02:11:42;34.17;;;15.90;;
10643;SDS011;5370;50.132;8.626;2022-11-30T02:25:07;32.10;;;16.63;;
10643;SDS011;5370;50.132;8.626;2022-11-30T02:30:22;30.77;;;16.20;;
10643;SDS011;5370;50.132;8.626;2022-11-30T02:32:58;35.00;;;16.10;;
10643;SDS011;5370;50.132;8.626;2022-11-30T02:35:30;33.53;;;17.10;;
10643;SDS011;5370;50.132;8.626;2022-11-30T02:37:58;31.13;;;16.27;;
10643;SDS011;5370;50.132;8.626;2022-11-30T02:40:27;34.97;;;17.13;;
10643;SDS011;5370;50.132;8.626;2022-11-30T02:42:53;28.10;;;16.17;;
10643;SDS011;5370;50.132;8.626;2022-11-30T02:45:23;30.47;;;16.77;;
10643;SDS011;5370;50.132;8.626;2022-11-30T02:48:03;34.20;;;14.97;;
10643;SDS011;5370;50.132;8.626;2022-11-30T02:50:35;28.87;;;16.40;;
10643;SDS011;5370;50.132;8.626;2022-11-30T02:53:05;32.63;;;16.80;;
10643;SDS011;5370;50.132;8.626;2022-11-30T02:55:32;31.10;;;16.27;;
10643;SDS011;5370;50.132;8.626;2022-11-30T02:57:58;26.37;;;15.83;;
10643;SDS011;5370;50.132;8.626;2022-11-30T03:00:24;33.93;;;16.20;;
10643;SDS011;5370;50.132;8.626;2022-11-30T03:02:49;39.87;;;16.37;;
10643;SDS011;5370;50.132;8.626;2022-11-30T03:05:15;35.40;;;17.03;;
10643;SDS011;5370;50.132;8.626;2022-11-30T03:07:40;36.03;;;16.53;;
10643;SDS011;5370;50.132;8.626;2022-11-30T03:10:06;35.27;;;17.70;;
10643;SDS011;5370;50.132;8.626;2022-11-30T03:12:32;34.93;;;17.57;;
10643;SDS011;5370;50.132;8.626;2022-11-30T03:14:58;214.23;;;140.93;;
10643;SDS011;5370;50.132;8.626;2022-11-30T03:17:23;338.53;;;205.33;;
10643;SDS011;5370;50.132;8.626;2022-11-30T03:19:49;339.57;;;205.20;;
10643;SDS011;5370;50.132;8.626;2022-11-30T03:22:15;222.40;;;120.87;;
10643;SDS011;5370;50.132;8.626;2022-11-30T03:24:40;53.90;;;23.43;;
10643;SDS011;5370;50.132;8.626;2022-11-30T03:27:06;46.97;;;23.27;;
10643;SDS011;5370;50.132;8.626;2022-11-30T03:29:31;39.20;;;18.53;;
10643;SDS011;5370;50.132;8.626;2022-11-30T03:31:57;37.33;;;18.47;;
10643;SDS011;5370;50.132;8.626;2022-11-30T03:34:22;34.63;;;17.27;;
10643;SDS011;5370;50.132;8.626;2022-11-30T03:36:50;33.83;;;17.97;;
10643;SDS011;5370;50.132;8.626;2022-11-30T03:39:16;41.87;;;17.93;;
10643;SDS011;5370;50.132;8.626;2022-11-30T03:41:41;32.30;;;16.87;;
10643;SDS011;5370;50.132;8.626;2022-11-30T03:44:07;42.37;;;18.07;;
10643;SDS011;5370;50.132;8.626;2022-11-30T03:46:32;34.70;;;16.30;;
10643;SDS011;5370;50.132;8.626;2022-11-30T03:48:58;35.93;;;17.53;;
10643;SDS011;5370;50.132;8.626;2022-11-30T03:51:23;35.50;;;18.13;;
10643;SDS011;5370;50.132;8.626;2022-11-30T03:53:49;42.47;;;17.80;;
10643;SDS011;5370;50.132;8.626;2022-11-30T03:56:15;36.47;;;17.93;;
10643;SDS011;5370;50.132;8.626;2022-11-30T03:58:40;41.13;;;18.67;;
10643;SDS011;5370;50.132;8.626;2022-11-30T04:01:14;42.90;;;19.13;;
10643;SDS011;5370;50.132;8.626;2022-11-30T04:03:41;43.17;;;19.77;;
10643;SDS011;5370;50.132;8.626;2022-11-30T04:06:08;44.43;;;19.67;;
10643;SDS011;5370;50.132;8.626;2022-11-30T04:08:34;35.90;;;18.37;;
10643;SDS011;5370;50.132;8.626;2022-11-30T04:11:01;35.83;;;16.67;;
10643;SDS011;5370;50.132;8.626;2022-11-30T04:13:28;31.77;;;17.17;;
10643;SDS011;5370;50.132;8.626;2022-11-30T04:15:54;35.10;;;16.57;;
10643;SDS011;5370;50.132;8.626;2022-11-30T04:18:21;34.87;;;18.30;;
10643;SDS011;5370;50.132;8.626;2022-11-30T04:20:49;30.13;;;16.13;;
10643;SDS011;5370;50.132;8.626;2022-11-30T04:23:16;39.23;;;17.70;;
10643;SDS011;5370;50.132;8.626;2022-11-30T04:25:41;35.97;;;18.20;;
10643;SDS011;5370;50.132;8.626;2022-11-30T04:28:07;38.17;;;17.93;;
10643;SDS011;5370;50.132;8.626;2022-11-30T04:30:35;39.83;;;19.53;;
10643;SDS011;5370;50.132;8.626;2022-11-30T04:33:02;35.97;;;19.17;;
10643;SDS011;5370;50.132;8.626;2022-11-30T04:35:28;36.00;;;17.93;;
10643;SDS011;5370;50.132;8.626;2022-11-30T04:37:53;36.83;;;17.60;;
10643;SDS011;5370;50.132;8.626;2022-11-30T04:40:19;41.70;;;18.00;;
10643;SDS011;5370;50.132;8.626;2022-11-30T04:42:45;37.80;;;18.40;;
10643;SDS011;5370;50.132;8.626;2022-11-30T04:45:10;35.47;;;17.30;;
10643;SDS011;5370;50.132;8.626;2022-11-30T04:47:36;34.87;;;17.07;;
10643;SDS011;5370;50.132;8.626;2022-11-30T04:50:02;35.53;;;17.63;;
10643;SDS011;5370;50.132;8.626;2022-11-30T04:52:29;34.93;;;16.97;;
10643;SDS011;5370;50.132;8.626;2022-11-30T04:54:54;33.50;;;16.13;;
10643;SDS011;5370;50.132;8.626;2022-11-30T04:57:21;33.30;;;17.67;;
10643;SDS011;5370;50.132;8.626;2022-11-30T04:59:47;28.97;;;15.37;;
10643;SDS011;5370;50.132;8.626;2022-11-30T05:02:12;32.07;;;15.67;;
10643;SDS011;5370;50.132;8.626;2022-11-30T05:04:38;33.57;;;16.20;;
10643;SDS011;5370;50.132;8.626;2022-11-30T05:07:03;31.00;;;16.27;;
10643;SDS011;5370;50.132;8.626;2022-11-30T05:09:30;35.63;;;16.83;;
10643;SDS011;5370;50.132;8.626;2022-11-30T05:11:55;35.87;;;16.40;;
10643;SDS011;5370;50.132;8.626;2022-11-30T05:14:21;34.43;;;16.53;;
10643;SDS011;5370;50.132;8.626;2022-11-30T05:16:47;37.07;;;17.47;;
10643;SDS011;5370;50.132;8.626;2022-11-30T05:19:13;30.50;;;14.70;;
10643;SDS011;5370;50.132;8.626;2022-11-30T05:21:38;36.00;;;15.47;;
10643;SDS011;5370;50.132;8.626;2022-11-30T05:24:04;32.80;;;16.03;;
10643;SDS011;5370;50.132;8.626;2022-11-30T05:26:30;37.30;;;16.80;;
10643;SDS011;5370;50.132;8.626;2022-11-30T05:28:56;29.13;;;16.17;;
10643;SDS011;5370;50.132;8.626;2022-11-30T05:31:21;35.43;;;16.23;;
10643;SDS011;5370;50.132;8.626;2022-11-30T05:33:49;26.57;;;14.53;;
10643;SDS011;5370;50.132;8.626;2022-11-30T05:36:15;27.70;;;16.27;;
10643;SDS011;5370;50.132;8.626;2022-11-30T05:38:41;34.70;;;15.60;;
10643;SDS011;5370;50.132;8.626;2022-11-30T05:41:06;28.80;;;15.13;;
10643;SDS011;5370;50.132;8.626;2022-11-30T05:43:32;31.23;;;15.37;;
10643;SDS011;5370;50.132;8.626;2022-11-30T05:45:58;34.23;;;15.37;;
10643;SDS011;5370;50.132;8.626;2022-11-30T05:48:25;37.90;;;17.03;;
10643;SDS011;5370;50.132;8.626;2022-11-30T05:50:50;36.33;;;16.93;;
10643;SDS011;5370;50.132;8.626;2022-11-30T05:53:16;39.13;;;17.67;;
10643;SDS011;5370;50.132;8.626;2022-11-30T05:55:41;38.10;;;17.13;;
10643;SDS011;5370;50.132;8.626;2022-11-30T05:58:07;38.87;;;17.97;;
10643;SDS011;5370;50.132;8.626;2022-11-30T06:00:32;32.23;;;16.60;;
10643;SDS011;5370;50.132;8.626;2022-11-30T06:02:58;35.13;;;16.30;;
10643;SDS011;5370;50.132;8.626;2022-11-30T06:05:24;36.50;;;17.43;;
10643;SDS011;5370;50.132;8.626;2022-11-30T06:07:50;34.90;;;18.30;;
10643;SDS011;5370;50.132;8.626;2022-11-30T06:10:16;34.57;;;16.40;;
10643;SDS011;5370;50.132;8.626;2022-11-30T06:12:41;34.00;;;17.47;;
10643;SDS011;5370;50.132;8.626;2022-11-30T06:15:07;37.07;;;17.57;;
10643;SDS011;5370;50.132;8.626;2022-11-30T06:17:33;43.87;;;17.63;;
10643;SDS011;5370;50.132;8.626;2022-11-30T06:20:02;40.33;;;17.63;;
10643;SDS011;5370;50.132;8.626;2022-11-30T06:22:29;35.13;;;18.13;;
10643;SDS011;5370;50.132;8.626;2022-11-30T06:24:54;33.53;;;17.37;;
10643;SDS011;5370;50.132;8.626;2022-11-30T06:27:20;38.93;;;18.10;;
10643;SDS011;5370;50.132;8.626;2022-11-30T06:29:45;38.60;;;18.67;;
10643;SDS011;5370;50.132;8.626;2022-11-30T06:32:11;37.70;;;17.70;;
10643;SDS011;5370;50.132;8.626;2022-11-30T06:34:36;36.60;;;17.53;;
10643;SDS011;5370;50.132;8.626;2022-11-30T06:37:02;43.00;;;17.67;;
10643;SDS011;5370;50.132;8.626;2022-11-30T06:39:27;35.37;;;17.60;;
10643;SDS011;5370;50.132;8.626;2022-11-30T06:41:53;38.40;;;18.60;;
10643;SDS011;5370;50.132;8.626;2022-11-30T06:44:18;32.97;;;16.67;;
10643;SDS011;5370;50.132;8.626;2022-11-30T06:46:44;35.40;;;16.63;;
10643;SDS011;5370;50.132;8.626;2022-11-30T06:49:10;35.93;;;17.93;;
10643;SDS011;5370;50.132;8.626;2022-11-30T06:51:36;37.93;;;18.40;;
10643;SDS011;5370;50.132;8.626;2022-11-30T06:54:03;36.57;;;18.37;;
10643;SDS011;5370;50.132;8.626;2022-11-30T06:56:30;43.87;;;18.60;;
10643;SDS011;5370;50.132;8.626;2022-11-30T06:58:55;41.97;;;18.97;;
10643;SDS011;5370;50.132;8.626;2022-11-30T07:01:21;43.30;;;17.63;;
10643;SDS011;5370;50.132;8.626;2022-11-30T07:03:47;36.40;;;17.90;;
10643;SDS011;5370;50.132;8.626;2022-11-30T07:06:13;37.73;;;18.97;;
10643;SDS011;5370;50.132;8.626;2022-11-30T07:08:39;41.60;;;19.80;;
10643;SDS011;5370;50.132;8.626;2022-11-30T07:11:05;37.00;;;17.87;;
10643;SDS011;5370;50.132;8.626;2022-11-30T07:13:31;38.47;;;18.17;;
10643;SDS011;5370;50.132;8.626;2022-11-30T07:15:57;39.67;;;19.63;;
10643;SDS011;5370;50.132;8.626;2022-11-30T07:18:23;41.90;;;19.77;;
10643;SDS011;5370;50.132;8.626;2022-11-30T07:20:48;37.70;;;18.47;;
10643;SDS011;5370;50.132;8.626;2022-11-30T07:23:14;45.13;;;19.20;;
10643;SDS011;5370;50.132;8.626;2022-11-30T07:25:59;40.33;;;19.03;;
10643;SDS011;5370;50.132;8.626;2022-11-30T07:28:34;40.30;;;19.40;;
10643;SDS011;5370;50.132;8.626;2022-11-30T07:31:13;43.87;;;19.10;;
10643;SDS011;5370;50.132;8.626;2022-11-30T07:33:41;44.70;;;20.30;;
10643;SDS011;5370;50.132;8.626;2022-11-30T07:36:07;37.90;;;19.70;;
10643;SDS011;5370;50.132;8.626;2022-11-30T07:38:34;45.50;;;21.23;;
10643;SDS011;5370;50.132;8.626;2022-11-30T07:40:59;35.53;;;19.70;;
10643;SDS011;5370;50.132;8.626;2022-11-30T07:43:26;44.47;;;21.30;;
10643;SDS011;5370;50.132;8.626;2022-11-30T07:45:53;44.50;;;19.97;;
10643;SDS011;5370;50.132;8.626;2022-11-30T07:48:19;43.37;;;19.87;;
10643;SDS011;5370;50.132;8.626;2022-11-30T07:50:45;48.73;;;20.73;;
10643;SDS011;5370;50.132;8.626;2022-11-30T07:53:11;42.40;;;20.23;;
10643;SDS011;5370;50.132;8.626;2022-11-30T07:55:37;43.20;;;19.97;;
10643;SDS011;5370;50.132;8.626;2022-11-30T07:58:02;37.37;;;18.93;;
10643;SDS011;5370;50.132;8.626;2022-11-30T08:00:28;39.23;;;18.80;;
10643;SDS011;5370;50.132;8.626;2022-11-30T08:02:54;40.20;;;19.20;;
10643;SDS011;5370;50.132;8.626;2022-11-30T08:05:19;44.67;;;20.17;;
10643;SDS011;5370;50.132;8.626;2022-11-30T08:07:49;35.33;;;18.50;;
10643;SDS011;5370;50.132;8.626;2022-11-30T08:10:15;40.03;;;20.40;;
10643;SDS011;5370;50.132;8.626;2022-11-30T08:12:40;35.57;;;17.90;;
10643;SDS011;5370;50.132;8.626;2022-11-30T08:15:06;40.23;;;18.47;;
10643;SDS011;5370;50.132;8.626;2022-11-30T08:17:32;33.43;;;17.80;;
10643;SDS011;5370;50.132;8.626;2022-11-30T08:19:57;38.57;;;18.03;;
10643;SDS011;5370;50.132;8.626;2022-11-30T08:22:23;36.27;;;17.27;;
10643;SDS011;5370;50.132;8.626;2022-11-30T08:24:48;32.90;;;16.37;;
10643;SDS011;5370;50.132;8.626;2022-11-30T08:27:14;40.13;;;18.57;;
10643;SDS011;5370;50.132;8.626;2022-11-30T08:29:39;36.83;;;18.70;;
10643;SDS011;5370;50.132;8.626;2022-11-30T08:32:05;37.77;;;16.70;;
10643;SDS011;5370;50.132;8.626;2022-11-30T08:34:30;34.10;;;15.97;;
10643;SDS011;5370;50.132;8.626;2022-11-30T08:36:56;30.67;;;16.90;;
10643;SDS011;5370;50.132;8.626;2022-11-30T08:39:22;36.27;;;17.87;;
10643;SDS011;5370;50.132;8.626;2022-11-30T08:41:47;34.67;;;18.57;;
10643;SDS011;5370;50.132;8.626;2022-11-30T08:44:13;34.23;;;17.77;;
10643;SDS011;5370;50.132;8.626;2022-11-30T08:46:38;33.00;;;16.83;;
10643;SDS011;5370;50.132;8.626;2022-11-30T08:49:04;31.80;;;17.77;;
10643;SDS011;5370;50.132;8.626;2022-11-30T08:51:29;31.83;;;17.63;;
10643;SDS011;5370;50.132;8.626;2022-11-30T08:53:55;35.87;;;17.07;;
10643;SDS011;5370;50.132;8.626;2022-11-30T08:56:22;36.73;;;17.17;;
10643;SDS011;5370;50.132;8.626;2022-11-30T08:58:47;30.27;;;16.87;;
10643;SDS011;5370;50.132;8.626;2022-11-30T09:01:15;33.93;;;17.10;;
10643;SDS011;5370;50.132;8.626;2022-11-30T09:03:43;33.97;;;17.27;;
10643;SDS011;5370;50.132;8.626;2022-11-30T09:06:19;35.37;;;18.00;;
10643;SDS011;5370;50.132;8.626;2022-11-30T09:08:47;36.27;;;17.37;;
10643;SDS011;5370;50.132;8.626;2022-11-30T09:13:40;38.57;;;18.80;;
10643;SDS011;5370;50.132;8.626;2022-11-30T09:16:06;33.00;;;18.07;;
10643;SDS011;5370;50.132;8.626;2022-11-30T09:18:33;35.93;;;16.53;;
10643;SDS011;5370;50.132;8.626;2022-11-30T09:20:59;40.47;;;16.23;;
10643;SDS011;5370;50.132;8.626;2022-11-30T09:23:26;37.83;;;17.57;;
10643;SDS011;5370;50.132;8.626;2022-11-30T09:25:56;36.23;;;17.43;;
10643;SDS011;5370;50.132;8.626;2022-11-30T09:28:22;38.00;;;18.33;;
10643;SDS011;5370;50.132;8.626;2022-11-30T09:30:48;41.17;;;21.53;;
10643;SDS011;5370;50.132;8.626;2022-11-30T09:33:14;44.43;;;22.70;;
10643;SDS011;5370;50.132;8.626;2022-11-30T09:35:39;45.47;;;23.23;;
10643;SDS011;5370;50.132;8.626;2022-11-30T09:38:05;40.80;;;18.37;;
10643;SDS011;5370;50.132;8.626;2022-11-30T09:40:30;37.97;;;19.03;;
10643;SDS011;5370;50.132;8.626;2022-11-30T09:46:04;41.07;;;19.20;;
10643;SDS011;5370;50.132;8.626;2022-11-30T09:51:51;40.10;;;19.87;;
10643;SDS011;5370;50.132;8.626;2022-11-30T09:54:24;37.33;;;18.03;;
10643;SDS011;5370;50.132;8.626;2022-11-30T10:00:05;41.83;;;20.03;;
10643;SDS011;5370;50.132;8.626;2022-11-30T10:02:39;43.43;;;20.93;;
10643;SDS011;5370;50.132;8.626;2022-11-30T10:05:27;35.47;;;17.73;;
10643;SDS011;5370;50.132;8.626;2022-11-30T10:10:45;35.80;;;18.83;;
10643;SDS011;5370;50.132;8.626;2022-11-30T10:13:24;44.30;;;20.13;;
10643;SDS011;5370;50.132;8.626;2022-11-30T10:16:22;35.63;;;17.30;;
10643;SDS011;5370;50.132;8.626;2022-11-30T10:24:50;42.27;;;20.13;;
10643;SDS011;5370;50.132;8.626;2022-11-30T10:27:44;46.67;;;20.20;;
10643;SDS011;5370;50.132;8.626;2022-11-30T10:30:22;44.00;;;19.20;;
10643;SDS011;5370;50.132;8.626;2022-11-30T10:32:53;41.37;;;20.03;;
10643;SDS011;5370;50.132;8.626;2022-11-30T10:35:41;38.17;;;18.63;;
10643;SDS011;5370;50.132;8.626;2022-11-30T10:38:30;38.63;;;17.13;;
10643;SDS011;5370;50.132;8.626;2022-11-30T10:41:00;37.03;;;19.70;;
10643;SDS011;5370;50.132;8.626;2022-11-30T10:43:30;40.37;;;19.50;;
10643;SDS011;5370;50.132;8.626;2022-11-30T10:46:03;43.87;;;19.43;;
10643;SDS011;5370;50.132;8.626;2022-11-30T10:51:30;35.73;;;18.73;;
10643;SDS011;5370;50.132;8.626;2022-11-30T10:54:00;37.53;;;17.57;;
10643;SDS011;5370;50.132;8.626;2022-11-30T10:56:31;36.60;;;18.20;;
10643;SDS011;5370;50.132;8.626;2022-11-30T10:59:07;40.03;;;18.70;;
10643;SDS011;5370;50.132;8.626;2022-11-30T11:01:43;32.87;;;17.50;;
10643;SDS011;5370;50.132;8.626;2022-11-30T11:04:12;43.07;;;18.37;;
10643;SDS011;5370;50.132;8.626;2022-11-30T11:06:51;45.37;;;19.17;;
10643;SDS011;5370;50.132;8.626;2022-11-30T11:12:02;34.87;;;18.00;;
10643;SDS011;5370;50.132;8.626;2022-11-30T11:14:30;42.43;;;19.43;;
10643;SDS011;5370;50.132;8.626;2022-11-30T11:22:03;39.97;;;19.37;;
10643;SDS011;5370;50.132;8.626;2022-11-30T11:24:31;36.17;;;18.40;;
10643;SDS011;5370;50.132;8.626;2022-11-30T11:26:57;36.67;;;17.17;;
10643;SDS011;5370;50.132;8.626;2022-11-30T11:29:33;41.03;;;19.03;;
10643;SDS011;5370;50.132;8.626;2022-11-30T11:34:49;36.00;;;17.53;;
10643;SDS011;5370;50.132;8.626;2022-11-30T11:37:19;32.57;;;17.20;;
10643;SDS011;5370;50.132;8.626;2022-11-30T11:45:17;27.50;;;16.50;;
10643;SDS011;5370;50.132;8.626;2022-11-30T11:50:32;27.03;;;17.83;;
10643;SDS011;5370;50.132;8.626;2022-11-30T11:53:14;25.03;;;15.87;;
10643;SDS011;5370;50.132;8.626;2022-11-30T11:58:48;23.70;;;16.07;;
10643;SDS011;5370;50.132;8.626;2022-11-30T12:01:24;24.77;;;15.47;;
10643;SDS011;5370;50.132;8.626;2022-11-30T12:04:11;25.73;;;14.73;;
10643;SDS011;5370;50.132;8.626;2022-11-30T12:06:39;21.27;;;14.83;;
10643;SDS011;5370;50.132;8.626;2022-11-30T12:09:10;27.10;;;16.60;;
10643;SDS011;5370;50.132;8.626;2022-11-30T12:11:44;24.07;;;15.43;;
10643;SDS011;5370;50.132;8.626;2022-11-30T12:14:12;22.80;;;14.70;;
10643;SDS011;5370;50.132;8.626;2022-11-30T12:16:55;26.37;;;15.33;;
10643;SDS011;5370;50.132;8.626;2022-11-30T12:33:29;23.07;;;14.93;;
10643;SDS011;5370;50.132;8.626;2022-11-30T12:41:58;22.73;;;13.87;;
10643;SDS011;5370;50.132;8.626;2022-11-30T12:44:35;28.27;;;16.63;;
10643;SDS011;5370;50.132;8.626;2022-11-30T12:53:23;33.27;;;18.40;;
10643;SDS011;5370;50.132;8.626;2022-11-30T12:58:31;29.37;;;17.07;;
10643;SDS011;5370;50.132;8.626;2022-11-30T13:01:16;29.97;;;18.37;;
10643;SDS011;5370;50.132;8.626;2022-11-30T13:03:50;30.50;;;18.50;;
10643;SDS011;5370;50.132;8.626;2022-11-30T13:06:22;36.63;;;19.93;;
10643;SDS011;5370;50.132;8.626;2022-11-30T13:09:14;34.43;;;19.17;;
10643;SDS011;5370;50.132;8.626;2022-11-30T13:12:06;34.53;;;19.53;;
10643;SDS011;5370;50.132;8.626;2022-11-30T13:14:40;31.50;;;18.53;;
10643;SDS011;5370;50.132;8.626;2022-11-30T13:17:09;37.60;;;19.60;;
10643;SDS011;5370;50.132;8.626;2022-11-30T13:25:29;37.17;;;19.60;;
10643;SDS011;5370;50.132;8.626;2022-11-30T13:28:11;38.00;;;23.50;;
10643;SDS011;5370;50.132;8.626;2022-11-30T13:31:42;41.50;;;24.20;;
10643;SDS011;5370;50.132;8.626;2022-11-30T13:41:41;34.00;;;20.27;;
10643;SDS011;5370;50.132;8.626;2022-11-30T13:44:22;40.93;;;20.10;;
10643;SDS011;5370;50.132;8.626;2022-11-30T13:47:01;27.93;;;19.20;;
10643;SDS011;5370;50.132;8.626;2022-11-30T13:49:30;37.30;;;20.13;;
10643;SDS011;5370;50.132;8.626;2022-11-30T13:51:59;37.10;;;19.93;;
10643;SDS011;5370;50.132;8.626;2022-11-30T13:57:15;38.70;;;22.03;;
10643;SDS011;5370;50.132;8.626;2022-11-30T13:59:49;33.07;;;17.90;;
10643;SDS011;5370;50.132;8.626;2022-11-30T14:08:08;41.33;;;21.17;;
10643;SDS011;5370;50.132;8.626;2022-11-30T14:13:01;35.30;;;20.40;;
10643;SDS011;5370;50.132;8.626;2022-11-30T14:20:32;40.13;;;19.03;;
10643;SDS011;5370;50.132;8.626;2022-11-30T14:23:23;39.90;;;20.00;;
10643;SDS011;5370;50.132;8.626;2022-11-30T14:26:06;35.27;;;20.50;;
10643;SDS011;5370;50.132;8.626;2022-11-30T14:28:56;37.60;;;21.60;;
10643;SDS011;5370;50.132;8.626;2022-11-30T14:31:45;31.67;;;18.87;;
10643;SDS011;5370;50.132;8.626;2022-11-30T14:34:20;30.97;;;18.60;;
10643;SDS011;5370;50.132;8.626;2022-11-30T14:37:15;38.40;;;20.37;;
10643;SDS011;5370;50.132;8.626;2022-11-30T14:39:53;41.47;;;21.37;;
10643;SDS011;5370;50.132;8.626;2022-11-30T14:42:23;37.20;;;20.80;;
10643;SDS011;5370;50.132;8.626;2022-11-30T14:44:50;31.47;;;18.60;;
10643;SDS011;5370;50.132;8.626;2022-11-30T14:47:24;34.03;;;19.60;;
10643;SDS011;5370;50.132;8.626;2022-11-30T14:49:58;37.50;;;20.10;;
10643;SDS011;5370;50.132;8.626;2022-11-30T14:52:44;33.67;;;19.27;;
10643;SDS011;5370;50.132;8.626;2022-11-30T14:58:44;32.17;;;18.37;;
10643;SDS011;5370;50.132;8.626;2022-11-30T15:01:19;33.37;;;19.10;;
10643;SDS011;5370;50.132;8.626;2022-11-30T15:03:50;35.57;;;21.00;;
10643;SDS011;5370;50.132;8.626;2022-11-30T15:06:18;35.97;;;22.47;;
10643;SDS011;5370;50.132;8.626;2022-11-30T15:08:55;43.53;;;25.90;;
10643;SDS011;5370;50.132;8.626;2022-11-30T15:11:22;35.47;;;22.37;;
10643;SDS011;5370;50.132;8.626;2022-11-30T15:13:49;28.03;;;18.33;;
10643;SDS011;5370;50.132;8.626;2022-11-30T15:18:46;28.27;;;17.87;;
10643;SDS011;5370;50.132;8.626;2022-11-30T15:21:23;26.67;;;17.93;;
10643;SDS011;5370;50.132;8.626;2022-11-30T15:23:50;27.37;;;17.73;;
10643;SDS011;5370;50.132;8.626;2022-11-30T15:26:18;34.50;;;19.50;;
10643;SDS011;5370;50.132;8.626;2022-11-30T15:29:01;29.23;;;18.80;;
10643;SDS011;5370;50.132;8.626;2022-11-30T15:31:37;24.57;;;17.77;;
10643;SDS011;5370;50.132;8.626;2022-11-30T15:34:05;25.03;;;17.93;;
10643;SDS011;5370;50.132;8.626;2022-11-30T15:36:40;32.00;;;17.80;;
10643;SDS011;5370;50.132;8.626;2022-11-30T15:39:06;34.80;;;21.30;;
10643;SDS011;5370;50.132;8.626;2022-11-30T15:41:39;28.40;;;18.40;;
10643;SDS011;5370;50.132;8.626;2022-11-30T15:44:15;29.17;;;19.20;;
10643;SDS011;5370;50.132;8.626;2022-11-30T15:46:55;24.57;;;17.77;;
10643;SDS011;5370;50.132;8.626;2022-11-30T15:49:23;28.07;;;19.07;;
10643;SDS011;5370;50.132;8.626;2022-11-30T15:52:14;27.13;;;17.10;;
10643;SDS011;5370;50.132;8.626;2022-11-30T15:54:42;24.00;;;16.43;;
10643;SDS011;5370;50.132;8.626;2022-11-30T15:57:10;21.50;;;14.00;;
10643;SDS011;5370;50.132;8.626;2022-11-30T15:59:36;22.90;;;15.67;;
10643;SDS011;5370;50.132;8.626;2022-11-30T16:02:02;24.27;;;14.50;;
10643;SDS011;5370;50.132;8.626;2022-11-30T16:07:32;21.23;;;15.07;;
10643;SDS011;5370;50.132;8.626;2022-11-30T16:12:40;15.70;;;12.60;;
10643;SDS011;5370;50.132;8.626;2022-11-30T16:15:20;19.13;;;13.90;;
10643;SDS011;5370;50.132;8.626;2022-11-30T16:17:48;16.10;;;11.83;;
10643;SDS011;5370;50.132;8.626;2022-11-30T16:20:14;18.77;;;12.13;;
10643;SDS011;5370;50.132;8.626;2022-11-30T16:22:41;14.77;;;11.00;;
10643;SDS011;5370;50.132;8.626;2022-11-30T16:25:10;15.70;;;10.83;;
10643;SDS011;5370;50.132;8.626;2022-11-30T16:27:47;16.47;;;10.97;;
10643;SDS011;5370;50.132;8.626;2022-11-30T16:30:14;14.43;;;11.23;;
10643;SDS011;5370;50.132;8.626;2022-11-30T16:32:41;14.37;;;10.50;;
10643;SDS011;5370;50.132;8.626;2022-11-30T16:37:44;14.67;;;10.67;;
10643;SDS011;5370;50.132;8.626;2022-11-30T16:40:10;17.30;;;12.70;;
10643;SDS011;5370;50.132;8.626;2022-11-30T16:42:36;14.23;;;11.67;;
10643;SDS011;5370;50.132;8.626;2022-11-30T16:45:01;15.40;;;12.73;;
10643;SDS011;5370;50.132;8.626;2022-11-30T16:47:27;16.43;;;12.90;;
10643;SDS011;5370;50.132;8.626;2022-11-30T16:49:53;16.90;;;12.73;;
10643;SDS011;5370;50.132;8.626;2022-11-30T16:52:18;18.57;;;12.10;;
10643;SDS011;5370;50.132;8.626;2022-11-30T16:54:44;17.53;;;13.20;;
10643;SDS011;5370;50.132;8.626;2022-11-30T16:57:09;20.83;;;14.40;;
10643;SDS011;5370;50.132;8.626;2022-11-30T16:59:35;21.80;;;13.13;;
10643;SDS011;5370;50.132;8.626;2022-11-30T17:02:00;21.53;;;14.07;;